sensor_id;sensor_type;location;lat;lon;timestamp;P1;durP1;ratioP1;P2;durP2;ratioP2
18905;SDS011;9585;51.018;4.282;2022-12-18T00:02:25;41.87;;;21.90;;
18905;SDS011;9585;51.018;4.282;2022-12-18T00:04:53;43.80;;;20.87;;
18905;SDS011;9585;51.018;4.282;2022-12-18T00:07:20;40.50;;;20.13;;
18905;SDS011;9585;51.018;4.282;2022-12-18T00:09:49;44.03;;;22.33;;
18905;SDS011;9585;51.018;4.282;2022-12-18T00:12:16;45.90;;;22.27;;
18905;SDS011;9585;51.018;4.282;2022-12-18T00:14:43;45.13;;;22.83;;
18905;SDS011;9585;51.018;4.282;2022-12-18T00:17:11;44.63;;;22.47;;
18905;SDS011;9585;51.018;4.282;2022-12-18T00:19:38;45.97;;;21.73;;
18905;SDS011;9585;51.018;4.282;2022-12-18T00:22:05;44.43;;;22.07;;
18905;SDS011;9585;51.018;4.282;2022-12-18T00:24:33;41.87;;;21.60;;
18905;SDS011;9585;51.018;4.282;2022-12-18T00:27:01;42.20;;;20.60;;
18905;SDS011;9585;51.018;4.282;2022-12-18T00:29:29;38.10;;;20.37;;
18905;SDS011;9585;51.018;4.282;2022-12-18T00:31:56;40.33;;;20.67;;
18905;SDS011;9585;51.018;4.282;2022-12-18T00:34:24;44.93;;;23.80;;
18905;SDS011;9585;51.018;4.282;2022-12-18T00:36:51;39.77;;;19.90;;
18905;SDS011;9585;51.018;4.282;2022-12-18T00:39:18;38.70;;;20.73;;
18905;SDS011;9585;51.018;4.282;2022-12-18T00:41:46;42.30;;;20.60;;
18905;SDS011;9585;51.018;4.282;2022-12-18T00:44:32;42.97;;;20.73;;
18905;SDS011;9585;51.018;4.282;2022-12-18T00:46:59;43.50;;;21.17;;
18905;SDS011;9585;51.018;4.282;2022-12-18T00:49:27;37.57;;;19.70;;
18905;SDS011;9585;51.018;4.282;2022-12-18T00:51:54;39.30;;;19.83;;
18905;SDS011;9585;51.018;4.282;2022-12-18T00:54:21;43.23;;;21.67;;
18905;SDS011;9585;51.018;4.282;2022-12-18T00:56:49;40.63;;;21.40;;
18905;SDS011;9585;51.018;4.282;2022-12-18T00:59:17;44.17;;;21.60;;
18905;SDS011;9585;51.018;4.282;2022-12-18T01:01:46;42.43;;;21.67;;
18905;SDS011;9585;51.018;4.282;2022-12-18T01:04:14;41.10;;;21.47;;
18905;SDS011;9585;51.018;4.282;2022-12-18T01:06:42;43.43;;;21.43;;
18905;SDS011;9585;51.018;4.282;2022-12-18T01:09:09;46.77;;;21.77;;
18905;SDS011;9585;51.018;4.282;2022-12-18T01:11:36;41.77;;;21.33;;
18905;SDS011;9585;51.018;4.282;2022-12-18T01:14:04;41.17;;;20.93;;
18905;SDS011;9585;51.018;4.282;2022-12-18T01:16:31;44.27;;;20.53;;
18905;SDS011;9585;51.018;4.282;2022-12-18T01:19:00;41.13;;;19.63;;
18905;SDS011;9585;51.018;4.282;2022-12-18T01:21:27;41.17;;;21.70;;
18905;SDS011;9585;51.018;4.282;2022-12-18T01:23:55;40.33;;;21.30;;
18905;SDS011;9585;51.018;4.282;2022-12-18T01:26:24;37.93;;;21.27;;
18905;SDS011;9585;51.018;4.282;2022-12-18T01:28:53;45.57;;;22.10;;
18905;SDS011;9585;51.018;4.282;2022-12-18T01:31:22;45.03;;;21.97;;
18905;SDS011;9585;51.018;4.282;2022-12-18T01:33:51;46.63;;;22.20;;
18905;SDS011;9585;51.018;4.282;2022-12-18T01:36:21;41.10;;;20.97;;
18905;SDS011;9585;51.018;4.282;2022-12-18T01:38:50;44.97;;;22.93;;
18905;SDS011;9585;51.018;4.282;2022-12-18T01:41:19;39.97;;;21.10;;
18905;SDS011;9585;51.018;4.282;2022-12-18T01:43:49;41.60;;;20.83;;
18905;SDS011;9585;51.018;4.282;2022-12-18T01:46:19;38.20;;;21.13;;
18905;SDS011;9585;51.018;4.282;2022-12-18T01:48:48;36.33;;;18.87;;
18905;SDS011;9585;51.018;4.282;2022-12-18T01:51:18;37.03;;;20.00;;
18905;SDS011;9585;51.018;4.282;2022-12-18T01:53:47;38.93;;;18.23;;
18905;SDS011;9585;51.018;4.282;2022-12-18T01:56:16;34.67;;;18.57;;
18905;SDS011;9585;51.018;4.282;2022-12-18T01:58:47;38.83;;;19.23;;
18905;SDS011;9585;51.018;4.282;2022-12-18T02:01:20;38.50;;;19.70;;
18905;SDS011;9585;51.018;4.282;2022-12-18T02:03:48;36.67;;;18.97;;
18905;SDS011;9585;51.018;4.282;2022-12-18T02:06:18;33.47;;;18.07;;
18905;SDS011;9585;51.018;4.282;2022-12-18T02:08:50;34.07;;;17.73;;
18905;SDS011;9585;51.018;4.282;2022-12-18T02:11:27;31.97;;;17.47;;
18905;SDS011;9585;51.018;4.282;2022-12-18T02:14:07;35.83;;;18.50;;
18905;SDS011;9585;51.018;4.282;2022-12-18T02:16:44;34.80;;;18.70;;
18905;SDS011;9585;51.018;4.282;2022-12-18T02:19:25;43.77;;;20.60;;
18905;SDS011;9585;51.018;4.282;2022-12-18T02:22:08;39.67;;;20.50;;
18905;SDS011;9585;51.018;4.282;2022-12-18T02:24:52;39.17;;;20.17;;
18905;SDS011;9585;51.018;4.282;2022-12-18T02:27:28;40.13;;;20.63;;
18905;SDS011;9585;51.018;4.282;2022-12-18T02:29:58;39.30;;;21.27;;
18905;SDS011;9585;51.018;4.282;2022-12-18T02:32:32;40.57;;;20.30;;
18905;SDS011;9585;51.018;4.282;2022-12-18T02:35:02;40.70;;;20.43;;
18905;SDS011;9585;51.018;4.282;2022-12-18T02:37:33;40.03;;;19.80;;
18905;SDS011;9585;51.018;4.282;2022-12-18T02:40:02;38.93;;;20.03;;
18905;SDS011;9585;51.018;4.282;2022-12-18T02:42:33;39.13;;;21.00;;
18905;SDS011;9585;51.018;4.282;2022-12-18T02:45:00;37.80;;;20.00;;
18905;SDS011;9585;51.018;4.282;2022-12-18T02:47:29;41.07;;;20.20;;
18905;SDS011;9585;51.018;4.282;2022-12-18T02:50:02;39.40;;;20.00;;
18905;SDS011;9585;51.018;4.282;2022-12-18T02:52:39;38.77;;;20.27;;
18905;SDS011;9585;51.018;4.282;2022-12-18T02:55:17;39.23;;;19.90;;
18905;SDS011;9585;51.018;4.282;2022-12-18T02:57:54;39.77;;;20.10;;
18905;SDS011;9585;51.018;4.282;2022-12-18T03:00:27;39.83;;;19.90;;
18905;SDS011;9585;51.018;4.282;2022-12-18T03:02:59;39.97;;;20.67;;
18905;SDS011;9585;51.018;4.282;2022-12-18T03:05:33;40.57;;;20.20;;
18905;SDS011;9585;51.018;4.282;2022-12-18T03:08:06;41.43;;;21.10;;
18905;SDS011;9585;51.018;4.282;2022-12-18T03:10:40;42.63;;;20.63;;
18905;SDS011;9585;51.018;4.282;2022-12-18T03:13:13;40.50;;;20.00;;
18905;SDS011;9585;51.018;4.282;2022-12-18T03:15:47;36.30;;;19.80;;
18905;SDS011;9585;51.018;4.282;2022-12-18T03:18:18;39.03;;;20.13;;
18905;SDS011;9585;51.018;4.282;2022-12-18T03:20:50;41.00;;;20.17;;
18905;SDS011;9585;51.018;4.282;2022-12-18T03:23:22;38.40;;;19.93;;
18905;SDS011;9585;51.018;4.282;2022-12-18T03:25:54;37.00;;;19.83;;
18905;SDS011;9585;51.018;4.282;2022-12-18T03:28:26;38.10;;;18.80;;
18905;SDS011;9585;51.018;4.282;2022-12-18T03:30:55;34.03;;;18.83;;
18905;SDS011;9585;51.018;4.282;2022-12-18T03:33:25;37.73;;;19.33;;
18905;SDS011;9585;51.018;4.282;2022-12-18T03:35:55;33.17;;;17.50;;
18905;SDS011;9585;51.018;4.282;2022-12-18T03:38:22;37.90;;;19.13;;
18905;SDS011;9585;51.018;4.282;2022-12-18T03:40:52;34.97;;;18.33;;
18905;SDS011;9585;51.018;4.282;2022-12-18T03:43:30;34.77;;;17.83;;
18905;SDS011;9585;51.018;4.282;2022-12-18T03:46:06;38.23;;;19.00;;
18905;SDS011;9585;51.018;4.282;2022-12-18T03:48:39;34.47;;;18.47;;
18905;SDS011;9585;51.018;4.282;2022-12-18T03:51:11;36.40;;;18.20;;
18905;SDS011;9585;51.018;4.282;2022-12-18T03:53:45;32.93;;;18.03;;
18905;SDS011;9585;51.018;4.282;2022-12-18T03:56:18;36.07;;;18.43;;
18905;SDS011;9585;51.018;4.282;2022-12-18T03:58:48;35.20;;;17.87;;
18905;SDS011;9585;51.018;4.282;2022-12-18T04:01:18;34.33;;;18.27;;
18905;SDS011;9585;51.018;4.282;2022-12-18T04:03:56;35.20;;;17.33;;
18905;SDS011;9585;51.018;4.282;2022-12-18T04:06:26;34.77;;;17.10;;
18905;SDS011;9585;51.018;4.282;2022-12-18T04:08:54;38.10;;;18.33;;
18905;SDS011;9585;51.018;4.282;2022-12-18T04:11:22;32.07;;;17.57;;
18905;SDS011;9585;51.018;4.282;2022-12-18T04:13:53;33.67;;;17.27;;
18905;SDS011;9585;51.018;4.282;2022-12-18T04:16:22;33.43;;;17.27;;
18905;SDS011;9585;51.018;4.282;2022-12-18T04:18:50;35.00;;;18.03;;
18905;SDS011;9585;51.018;4.282;2022-12-18T04:21:17;35.03;;;17.40;;
18905;SDS011;9585;51.018;4.282;2022-12-18T04:23:45;29.50;;;16.17;;
18905;SDS011;9585;51.018;4.282;2022-12-18T04:26:12;28.87;;;14.97;;
18905;SDS011;9585;51.018;4.282;2022-12-18T04:28:40;26.90;;;15.37;;
18905;SDS011;9585;51.018;4.282;2022-12-18T04:31:09;27.93;;;15.70;;
18905;SDS011;9585;51.018;4.282;2022-12-18T04:33:36;29.40;;;15.97;;
18905;SDS011;9585;51.018;4.282;2022-12-18T04:36:04;26.83;;;14.83;;
18905;SDS011;9585;51.018;4.282;2022-12-18T04:38:32;28.27;;;15.00;;
18905;SDS011;9585;51.018;4.282;2022-12-18T04:40:59;29.50;;;14.57;;
18905;SDS011;9585;51.018;4.282;2022-12-18T04:43:26;26.93;;;14.77;;
18905;SDS011;9585;51.018;4.282;2022-12-18T04:45:54;28.07;;;14.13;;
18905;SDS011;9585;51.018;4.282;2022-12-18T04:48:29;26.67;;;13.87;;
18905;SDS011;9585;51.018;4.282;2022-12-18T04:50:57;25.20;;;13.80;;
18905;SDS011;9585;51.018;4.282;2022-12-18T04:53:24;26.90;;;14.67;;
18905;SDS011;9585;51.018;4.282;2022-12-18T04:56:02;29.53;;;15.97;;
18905;SDS011;9585;51.018;4.282;2022-12-18T04:58:33;26.07;;;15.27;;
18905;SDS011;9585;51.018;4.282;2022-12-18T05:01:01;27.97;;;14.67;;
18905;SDS011;9585;51.018;4.282;2022-12-18T05:03:30;28.43;;;15.33;;
18905;SDS011;9585;51.018;4.282;2022-12-18T05:05:58;28.43;;;14.80;;
18905;SDS011;9585;51.018;4.282;2022-12-18T05:08:25;29.37;;;14.53;;
18905;SDS011;9585;51.018;4.282;2022-12-18T05:10:57;29.30;;;15.40;;
18905;SDS011;9585;51.018;4.282;2022-12-18T05:13:26;29.70;;;14.97;;
18905;SDS011;9585;51.018;4.282;2022-12-18T05:15:54;26.93;;;15.40;;
18905;SDS011;9585;51.018;4.282;2022-12-18T05:18:22;28.13;;;15.60;;
18905;SDS011;9585;51.018;4.282;2022-12-18T05:20:51;30.00;;;15.93;;
18905;SDS011;9585;51.018;4.282;2022-12-18T05:23:20;28.20;;;15.67;;
18905;SDS011;9585;51.018;4.282;2022-12-18T05:25:50;29.17;;;15.23;;
18905;SDS011;9585;51.018;4.282;2022-12-18T05:28:18;33.23;;;16.83;;
18905;SDS011;9585;51.018;4.282;2022-12-18T05:30:47;33.83;;;16.50;;
18905;SDS011;9585;51.018;4.282;2022-12-18T05:33:15;29.73;;;16.30;;
18905;SDS011;9585;51.018;4.282;2022-12-18T05:35:43;35.53;;;17.40;;
18905;SDS011;9585;51.018;4.282;2022-12-18T05:38:13;34.23;;;17.23;;
18905;SDS011;9585;51.018;4.282;2022-12-18T05:40:41;30.70;;;16.70;;
18905;SDS011;9585;51.018;4.282;2022-12-18T05:43:09;32.87;;;16.50;;
18905;SDS011;9585;51.018;4.282;2022-12-18T05:45:36;33.10;;;16.63;;
18905;SDS011;9585;51.018;4.282;2022-12-18T05:48:05;33.73;;;17.10;;
18905;SDS011;9585;51.018;4.282;2022-12-18T05:50:33;30.43;;;17.17;;
18905;SDS011;9585;51.018;4.282;2022-12-18T05:53:01;29.07;;;16.50;;
18905;SDS011;9585;51.018;4.282;2022-12-18T05:55:32;33.30;;;16.47;;
18905;SDS011;9585;51.018;4.282;2022-12-18T05:58:00;30.07;;;16.50;;
18905;SDS011;9585;51.018;4.282;2022-12-18T06:00:27;33.27;;;17.23;;
18905;SDS011;9585;51.018;4.282;2022-12-18T06:02:55;31.00;;;16.57;;
18905;SDS011;9585;51.018;4.282;2022-12-18T06:05:22;32.97;;;16.00;;
18905;SDS011;9585;51.018;4.282;2022-12-18T06:07:50;28.10;;;15.57;;
18905;SDS011;9585;51.018;4.282;2022-12-18T06:10:17;27.70;;;14.53;;
18905;SDS011;9585;51.018;4.282;2022-12-18T06:12:47;24.80;;;14.17;;
18905;SDS011;9585;51.018;4.282;2022-12-18T06:15:14;22.90;;;13.07;;
18905;SDS011;9585;51.018;4.282;2022-12-18T06:17:42;24.83;;;13.97;;
18905;SDS011;9585;51.018;4.282;2022-12-18T06:20:09;24.53;;;14.80;;
18905;SDS011;9585;51.018;4.282;2022-12-18T06:22:37;23.93;;;13.10;;
18905;SDS011;9585;51.018;4.282;2022-12-18T06:25:05;29.80;;;15.70;;
18905;SDS011;9585;51.018;4.282;2022-12-18T06:27:33;27.63;;;14.07;;
18905;SDS011;9585;51.018;4.282;2022-12-18T06:30:02;31.17;;;14.83;;
18905;SDS011;9585;51.018;4.282;2022-12-18T06:32:30;27.97;;;15.20;;
18905;SDS011;9585;51.018;4.282;2022-12-18T06:34:57;32.77;;;16.50;;
18905;SDS011;9585;51.018;4.282;2022-12-18T06:37:25;27.77;;;14.13;;
18905;SDS011;9585;51.018;4.282;2022-12-18T06:39:52;27.37;;;15.40;;
18905;SDS011;9585;51.018;4.282;2022-12-18T06:42:23;27.33;;;15.17;;
18905;SDS011;9585;51.018;4.282;2022-12-18T06:44:50;25.17;;;14.83;;
18905;SDS011;9585;51.018;4.282;2022-12-18T06:47:19;28.33;;;15.33;;
18905;SDS011;9585;51.018;4.282;2022-12-18T06:49:46;29.87;;;14.90;;
18905;SDS011;9585;51.018;4.282;2022-12-18T06:52:14;30.00;;;15.40;;
18905;SDS011;9585;51.018;4.282;2022-12-18T06:54:41;28.27;;;14.87;;
18905;SDS011;9585;51.018;4.282;2022-12-18T06:57:09;30.67;;;16.27;;
18905;SDS011;9585;51.018;4.282;2022-12-18T06:59:36;29.40;;;15.33;;
18905;SDS011;9585;51.018;4.282;2022-12-18T07:02:04;28.43;;;15.53;;
18905;SDS011;9585;51.018;4.282;2022-12-18T07:04:33;27.13;;;15.83;;
18905;SDS011;9585;51.018;4.282;2022-12-18T07:07:00;27.40;;;15.30;;
18905;SDS011;9585;51.018;4.282;2022-12-18T07:09:28;30.27;;;15.73;;
18905;SDS011;9585;51.018;4.282;2022-12-18T07:11:56;27.93;;;15.37;;
18905;SDS011;9585;51.018;4.282;2022-12-18T07:14:23;27.33;;;14.73;;
18905;SDS011;9585;51.018;4.282;2022-12-18T07:16:51;27.63;;;14.83;;
18905;SDS011;9585;51.018;4.282;2022-12-18T07:19:18;27.90;;;14.60;;
18905;SDS011;9585;51.018;4.282;2022-12-18T07:21:47;25.83;;;15.43;;
18905;SDS011;9585;51.018;4.282;2022-12-18T07:24:16;27.60;;;15.10;;
18905;SDS011;9585;51.018;4.282;2022-12-18T07:26:45;24.73;;;14.70;;
18905;SDS011;9585;51.018;4.282;2022-12-18T07:29:12;30.03;;;14.83;;
18905;SDS011;9585;51.018;4.282;2022-12-18T07:31:43;23.90;;;14.33;;
18905;SDS011;9585;51.018;4.282;2022-12-18T07:34:10;28.43;;;15.43;;
18905;SDS011;9585;51.018;4.282;2022-12-18T07:36:38;26.80;;;15.10;;
18905;SDS011;9585;51.018;4.282;2022-12-18T07:39:07;25.33;;;15.20;;
18905;SDS011;9585;51.018;4.282;2022-12-18T07:41:35;24.07;;;13.60;;
18905;SDS011;9585;51.018;4.282;2022-12-18T07:44:02;25.73;;;14.00;;
18905;SDS011;9585;51.018;4.282;2022-12-18T07:46:30;22.13;;;13.17;;
18905;SDS011;9585;51.018;4.282;2022-12-18T07:48:57;26.63;;;13.80;;
18905;SDS011;9585;51.018;4.282;2022-12-18T07:51:25;27.07;;;14.50;;
18905;SDS011;9585;51.018;4.282;2022-12-18T07:53:52;24.43;;;13.63;;
18905;SDS011;9585;51.018;4.282;2022-12-18T07:56:22;25.00;;;14.93;;
18905;SDS011;9585;51.018;4.282;2022-12-18T07:58:49;25.20;;;14.90;;
18905;SDS011;9585;51.018;4.282;2022-12-18T08:01:16;24.13;;;14.60;;
18905;SDS011;9585;51.018;4.282;2022-12-18T08:03:44;26.17;;;15.07;;
18905;SDS011;9585;51.018;4.282;2022-12-18T08:06:11;27.10;;;14.87;;
18905;SDS011;9585;51.018;4.282;2022-12-18T08:08:39;25.40;;;14.47;;
18905;SDS011;9585;51.018;4.282;2022-12-18T08:11:09;24.97;;;15.13;;
18905;SDS011;9585;51.018;4.282;2022-12-18T08:13:38;24.13;;;14.13;;
18905;SDS011;9585;51.018;4.282;2022-12-18T08:16:06;27.20;;;15.20;;
18905;SDS011;9585;51.018;4.282;2022-12-18T08:18:34;25.83;;;14.83;;
18905;SDS011;9585;51.018;4.282;2022-12-18T08:21:09;26.33;;;14.67;;
18905;SDS011;9585;51.018;4.282;2022-12-18T08:23:36;26.87;;;14.07;;
18905;SDS011;9585;51.018;4.282;2022-12-18T08:26:04;26.07;;;14.23;;
18905;SDS011;9585;51.018;4.282;2022-12-18T08:28:32;27.93;;;14.73;;
18905;SDS011;9585;51.018;4.282;2022-12-18T08:31:02;25.50;;;14.40;;
18905;SDS011;9585;51.018;4.282;2022-12-18T08:33:29;22.90;;;13.70;;
18905;SDS011;9585;51.018;4.282;2022-12-18T08:35:57;22.00;;;14.40;;
18905;SDS011;9585;51.018;4.282;2022-12-18T08:38:25;29.33;;;15.53;;
18905;SDS011;9585;51.018;4.282;2022-12-18T08:40:58;26.43;;;14.70;;
18905;SDS011;9585;51.018;4.282;2022-12-18T08:43:26;25.50;;;14.50;;
18905;SDS011;9585;51.018;4.282;2022-12-18T08:46:12;23.03;;;13.77;;
18905;SDS011;9585;51.018;4.282;2022-12-18T08:48:40;22.53;;;13.73;;
18905;SDS011;9585;51.018;4.282;2022-12-18T08:51:10;22.60;;;13.10;;
18905;SDS011;9585;51.018;4.282;2022-12-18T08:53:38;27.77;;;15.20;;
18905;SDS011;9585;51.018;4.282;2022-12-18T08:56:09;24.73;;;13.73;;
18905;SDS011;9585;51.018;4.282;2022-12-18T08:58:38;23.33;;;13.77;;
18905;SDS011;9585;51.018;4.282;2022-12-18T09:01:06;21.63;;;13.53;;
18905;SDS011;9585;51.018;4.282;2022-12-18T09:03:37;19.00;;;12.50;;
18905;SDS011;9585;51.018;4.282;2022-12-18T09:06:04;23.27;;;13.03;;
18905;SDS011;9585;51.018;4.282;2022-12-18T09:08:33;23.47;;;13.03;;
18905;SDS011;9585;51.018;4.282;2022-12-18T09:11:01;22.83;;;12.90;;
18905;SDS011;9585;51.018;4.282;2022-12-18T09:13:29;22.10;;;13.00;;
18905;SDS011;9585;51.018;4.282;2022-12-18T09:15:57;21.40;;;13.07;;
18905;SDS011;9585;51.018;4.282;2022-12-18T09:18:25;23.93;;;13.33;;
18905;SDS011;9585;51.018;4.282;2022-12-18T09:20:54;24.90;;;13.47;;
18905;SDS011;9585;51.018;4.282;2022-12-18T09:23:21;23.07;;;13.33;;
18905;SDS011;9585;51.018;4.282;2022-12-18T09:25:49;24.87;;;13.70;;
18905;SDS011;9585;51.018;4.282;2022-12-18T09:28:17;22.43;;;13.50;;
18905;SDS011;9585;51.018;4.282;2022-12-18T09:30:46;19.73;;;13.17;;
18905;SDS011;9585;51.018;4.282;2022-12-18T09:33:15;21.43;;;13.13;;
18905;SDS011;9585;51.018;4.282;2022-12-18T09:35:44;20.03;;;12.70;;
18905;SDS011;9585;51.018;4.282;2022-12-18T09:38:14;19.73;;;11.97;;
18905;SDS011;9585;51.018;4.282;2022-12-18T09:40:43;19.20;;;11.37;;
18905;SDS011;9585;51.018;4.282;2022-12-18T09:43:13;19.63;;;11.70;;
18905;SDS011;9585;51.018;4.282;2022-12-18T09:45:46;17.93;;;11.03;;
18905;SDS011;9585;51.018;4.282;2022-12-18T09:48:19;19.90;;;10.80;;
18905;SDS011;9585;51.018;4.282;2022-12-18T09:50:50;17.60;;;11.17;;
18905;SDS011;9585;51.018;4.282;2022-12-18T09:53:24;17.73;;;11.03;;
18905;SDS011;9585;51.018;4.282;2022-12-18T09:55:54;16.67;;;10.33;;
18905;SDS011;9585;51.018;4.282;2022-12-18T09:58:24;15.80;;;9.93;;
18905;SDS011;9585;51.018;4.282;2022-12-18T10:00:56;16.40;;;10.87;;
18905;SDS011;9585;51.018;4.282;2022-12-18T10:03:24;16.53;;;10.57;;
18905;SDS011;9585;51.018;4.282;2022-12-18T10:05:54;17.97;;;10.33;;
18905;SDS011;9585;51.018;4.282;2022-12-18T10:08:32;17.03;;;10.73;;
18905;SDS011;9585;51.018;4.282;2022-12-18T10:11:15;14.87;;;9.50;;
18905;SDS011;9585;51.018;4.282;2022-12-18T10:13:56;14.43;;;10.17;;
18905;SDS011;9585;51.018;4.282;2022-12-18T10:16:32;14.67;;;10.37;;
18905;SDS011;9585;51.018;4.282;2022-12-18T10:19:16;15.83;;;9.60;;
18905;SDS011;9585;51.018;4.282;2022-12-18T10:21:51;17.17;;;10.40;;
18905;SDS011;9585;51.018;4.282;2022-12-18T10:24:28;17.50;;;10.10;;
18905;SDS011;9585;51.018;4.282;2022-12-18T10:27:06;15.53;;;10.20;;
18905;SDS011;9585;51.018;4.282;2022-12-18T10:29:40;23.57;;;13.10;;
18905;SDS011;9585;51.018;4.282;2022-12-18T10:32:09;18.07;;;11.23;;
18905;SDS011;9585;51.018;4.282;2022-12-18T10:34:44;16.63;;;10.40;;
18905;SDS011;9585;51.018;4.282;2022-12-18T10:37:17;19.53;;;10.60;;
18905;SDS011;9585;51.018;4.282;2022-12-18T10:39:48;16.33;;;10.90;;
18905;SDS011;9585;51.018;4.282;2022-12-18T10:42:37;15.20;;;9.63;;
18905;SDS011;9585;51.018;4.282;2022-12-18T10:45:08;16.00;;;9.97;;
18905;SDS011;9585;51.018;4.282;2022-12-18T10:47:41;16.77;;;9.73;;
18905;SDS011;9585;51.018;4.282;2022-12-18T10:50:18;14.17;;;9.53;;
18905;SDS011;9585;51.018;4.282;2022-12-18T10:52:53;15.27;;;10.10;;
18905;SDS011;9585;51.018;4.282;2022-12-18T10:55:23;15.93;;;10.03;;
18905;SDS011;9585;51.018;4.282;2022-12-18T10:57:56;14.13;;;9.20;;
18905;SDS011;9585;51.018;4.282;2022-12-18T11:00:43;15.57;;;10.23;;
18905;SDS011;9585;51.018;4.282;2022-12-18T11:06:04;14.87;;;10.60;;
18905;SDS011;9585;51.018;4.282;2022-12-18T11:08:33;15.23;;;9.53;;
18905;SDS011;9585;51.018;4.282;2022-12-18T11:11:02;16.63;;;10.10;;
18905;SDS011;9585;51.018;4.282;2022-12-18T11:13:42;14.20;;;9.57;;
18905;SDS011;9585;51.018;4.282;2022-12-18T11:16:26;14.60;;;10.03;;
18905;SDS011;9585;51.018;4.282;2022-12-18T11:18:54;17.40;;;10.80;;
18905;SDS011;9585;51.018;4.282;2022-12-18T11:21:38;13.50;;;9.37;;
18905;SDS011;9585;51.018;4.282;2022-12-18T11:24:07;15.33;;;9.93;;
18905;SDS011;9585;51.018;4.282;2022-12-18T11:26:51;16.40;;;10.33;;
18905;SDS011;9585;51.018;4.282;2022-12-18T11:29:22;15.37;;;10.87;;
18905;SDS011;9585;51.018;4.282;2022-12-18T11:34:55;21.00;;;12.97;;
18905;SDS011;9585;51.018;4.282;2022-12-18T11:37:28;19.33;;;11.03;;
18905;SDS011;9585;51.018;4.282;2022-12-18T11:39:56;17.53;;;11.07;;
18905;SDS011;9585;51.018;4.282;2022-12-18T11:42:30;16.27;;;11.40;;
18905;SDS011;9585;51.018;4.282;2022-12-18T11:45:03;15.23;;;10.87;;
18905;SDS011;9585;51.018;4.282;2022-12-18T11:47:48;15.13;;;10.77;;
18905;SDS011;9585;51.018;4.282;2022-12-18T11:50:21;17.97;;;11.40;;
18905;SDS011;9585;51.018;4.282;2022-12-18T11:52:52;16.33;;;11.00;;
18905;SDS011;9585;51.018;4.282;2022-12-18T11:55:21;16.10;;;10.00;;
18905;SDS011;9585;51.018;4.282;2022-12-18T11:57:57;17.20;;;11.13;;
18905;SDS011;9585;51.018;4.282;2022-12-18T12:00:32;17.53;;;10.80;;
18905;SDS011;9585;51.018;4.282;2022-12-18T12:03:20;18.47;;;11.30;;
18905;SDS011;9585;51.018;4.282;2022-12-18T12:05:57;17.30;;;10.87;;
18905;SDS011;9585;51.018;4.282;2022-12-18T12:08:38;16.10;;;11.47;;
18905;SDS011;9585;51.018;4.282;2022-12-18T12:11:16;17.47;;;12.00;;
18905;SDS011;9585;51.018;4.282;2022-12-18T12:13:56;15.60;;;10.97;;
18905;SDS011;9585;51.018;4.282;2022-12-18T12:16:49;14.63;;;10.37;;
18905;SDS011;9585;51.018;4.282;2022-12-18T12:19:27;15.90;;;11.07;;
18905;SDS011;9585;51.018;4.282;2022-12-18T12:22:07;17.23;;;11.23;;
18905;SDS011;9585;51.018;4.282;2022-12-18T12:24:45;17.47;;;11.27;;
18905;SDS011;9585;51.018;4.282;2022-12-18T12:27:21;17.50;;;12.30;;
18905;SDS011;9585;51.018;4.282;2022-12-18T12:30:01;16.57;;;11.57;;
18905;SDS011;9585;51.018;4.282;2022-12-18T12:32:43;17.47;;;11.43;;
18905;SDS011;9585;51.018;4.282;2022-12-18T12:35:22;17.13;;;11.93;;
18905;SDS011;9585;51.018;4.282;2022-12-18T12:38:02;16.97;;;11.77;;
18905;SDS011;9585;51.018;4.282;2022-12-18T12:40:35;18.13;;;12.27;;
18905;SDS011;9585;51.018;4.282;2022-12-18T12:43:10;16.90;;;11.87;;
18905;SDS011;9585;51.018;4.282;2022-12-18T12:45:53;17.57;;;12.20;;
18905;SDS011;9585;51.018;4.282;2022-12-18T12:48:32;17.83;;;11.60;;
18905;SDS011;9585;51.018;4.282;2022-12-18T12:51:07;18.27;;;11.37;;
18905;SDS011;9585;51.018;4.282;2022-12-18T12:53:38;17.47;;;11.63;;
18905;SDS011;9585;51.018;4.282;2022-12-18T12:56:06;18.83;;;11.90;;
18905;SDS011;9585;51.018;4.282;2022-12-18T12:58:38;16.93;;;12.10;;
18905;SDS011;9585;51.018;4.282;2022-12-18T13:01:16;16.00;;;11.03;;
18905;SDS011;9585;51.018;4.282;2022-12-18T13:03:54;18.70;;;12.27;;
18905;SDS011;9585;51.018;4.282;2022-12-18T13:06:33;18.43;;;12.10;;
18905;SDS011;9585;51.018;4.282;2022-12-18T13:09:07;18.10;;;12.57;;
18905;SDS011;9585;51.018;4.282;2022-12-18T13:11:35;17.00;;;12.43;;
18905;SDS011;9585;51.018;4.282;2022-12-18T13:14:22;20.30;;;13.00;;
18905;SDS011;9585;51.018;4.282;2022-12-18T13:20:02;20.40;;;12.33;;
18905;SDS011;9585;51.018;4.282;2022-12-18T13:22:35;18.70;;;12.13;;
18905;SDS011;9585;51.018;4.282;2022-12-18T13:28:09;18.40;;;12.70;;
18905;SDS011;9585;51.018;4.282;2022-12-18T13:30:41;18.13;;;12.97;;
18905;SDS011;9585;51.018;4.282;2022-12-18T13:36:11;15.77;;;11.67;;
18905;SDS011;9585;51.018;4.282;2022-12-18T13:38:41;21.97;;;13.70;;
18905;SDS011;9585;51.018;4.282;2022-12-18T13:41:22;18.67;;;13.27;;
18905;SDS011;9585;51.018;4.282;2022-12-18T13:43:51;17.30;;;13.60;;
18905;SDS011;9585;51.018;4.282;2022-12-18T13:46:26;19.27;;;13.00;;
18905;SDS011;9585;51.018;4.282;2022-12-18T13:48:58;23.03;;;14.63;;
18905;SDS011;9585;51.018;4.282;2022-12-18T13:51:29;21.37;;;14.90;;
18905;SDS011;9585;51.018;4.282;2022-12-18T13:53:59;26.20;;;17.73;;
18905;SDS011;9585;51.018;4.282;2022-12-18T13:56:30;29.13;;;17.17;;
18905;SDS011;9585;51.018;4.282;2022-12-18T13:59:13;30.17;;;18.37;;
18905;SDS011;9585;51.018;4.282;2022-12-18T14:01:46;25.47;;;16.73;;
18905;SDS011;9585;51.018;4.282;2022-12-18T14:04:24;26.20;;;17.20;;
18905;SDS011;9585;51.018;4.282;2022-12-18T14:06:55;26.03;;;16.63;;
18905;SDS011;9585;51.018;4.282;2022-12-18T14:09:25;22.23;;;15.23;;
18905;SDS011;9585;51.018;4.282;2022-12-18T14:11:55;21.97;;;14.77;;
18905;SDS011;9585;51.018;4.282;2022-12-18T14:14:37;20.57;;;13.20;;
18905;SDS011;9585;51.018;4.282;2022-12-18T14:17:09;21.57;;;13.53;;
18905;SDS011;9585;51.018;4.282;2022-12-18T14:19:42;20.00;;;13.10;;
18905;SDS011;9585;51.018;4.282;2022-12-18T14:22:14;21.03;;;13.47;;
18905;SDS011;9585;51.018;4.282;2022-12-18T14:24:44;21.20;;;13.53;;
18905;SDS011;9585;51.018;4.282;2022-12-18T14:27:12;27.03;;;15.90;;
18905;SDS011;9585;51.018;4.282;2022-12-18T14:29:49;23.97;;;14.40;;
18905;SDS011;9585;51.018;4.282;2022-12-18T14:32:17;22.37;;;13.97;;
18905;SDS011;9585;51.018;4.282;2022-12-18T14:34:50;21.90;;;13.67;;
18905;SDS011;9585;51.018;4.282;2022-12-18T14:37:20;23.13;;;14.00;;
18905;SDS011;9585;51.018;4.282;2022-12-18T14:39:54;21.13;;;14.30;;
18905;SDS011;9585;51.018;4.282;2022-12-18T14:42:23;22.67;;;14.33;;
18905;SDS011;9585;51.018;4.282;2022-12-18T14:48:00;28.13;;;15.40;;
18905;SDS011;9585;51.018;4.282;2022-12-18T14:50:34;23.67;;;14.37;;
18905;SDS011;9585;51.018;4.282;2022-12-18T14:53:01;23.50;;;13.77;;
18905;SDS011;9585;51.018;4.282;2022-12-18T14:55:29;23.70;;;14.83;;
18905;SDS011;9585;51.018;4.282;2022-12-18T14:58:01;25.80;;;15.30;;
18905;SDS011;9585;51.018;4.282;2022-12-18T15:00:29;22.93;;;15.20;;
18905;SDS011;9585;51.018;4.282;2022-12-18T15:02:57;25.57;;;15.17;;
18905;SDS011;9585;51.018;4.282;2022-12-18T15:05:25;26.47;;;14.03;;
18905;SDS011;9585;51.018;4.282;2022-12-18T15:07:56;23.77;;;14.37;;
18905;SDS011;9585;51.018;4.282;2022-12-18T15:10:25;25.20;;;14.97;;
18905;SDS011;9585;51.018;4.282;2022-12-18T15:13:06;24.73;;;15.07;;
18905;SDS011;9585;51.018;4.282;2022-12-18T15:15:44;24.93;;;14.83;;
18905;SDS011;9585;51.018;4.282;2022-12-18T15:18:12;23.53;;;14.13;;